Time;durP1;ratioP1;P1;durP2;ratioP2;P2;SDS_P1;SDS_P2;PMS_P1;PMS_P2;Temp;Humidity;BMP_temperature;BMP_pressure;BME280_temperature;BME280_humidity;BME280_pressure;Samples;Min_cycle;Max_cycle;Signal;HPM_P1;HPM_P2
2023/10/18 00:00:58;;;;;;;130.60;29.90;;;;;;;;;;5013304;28;20034;-65
2023/10/18 00:03:30;;;;;;;130.30;30.00;;;;;;;;;;5011116;28;20096;-65
2023/10/18 00:05:56;;;;;;;131.07;30.37;;;;;;;;;;5011097;28;20034;-65
2023/10/18 00:08:23;;;;;;;131.70;30.07;;;;;;;;;;5010947;28;20375;-65
2023/10/18 00:10:49;;;;;;;130.27;29.17;;;;;;;;;;5011456;28;20067;-65
2023/10/18 00:13:15;;;;;;;130.27;29.60;;;;;;;;;;5012253;28;20038;-65
2023/10/18 00:15:40;;;;;;;125.77;29.20;;;;;;;;;;5011276;28;20030;-65
2023/10/18 00:18:05;;;;;;;131.50;29.87;;;;;;;;;;5011709;28;20045;-65
2023/10/18 00:20:30;;;;;;;133.93;28.97;;;;;;;;;;5015113;28;20491;-65
2023/10/18 00:22:57;;;;;;;131.67;30.03;;;;;;;;;;5012125;28;20505;-65
2023/10/18 00:25:22;;;;;;;130.67;29.97;;;;;;;;;;5014164;28;20026;-65
2023/10/18 00:27:48;;;;;;;125.37;29.57;;;;;;;;;;5014659;28;20030;-65
2023/10/18 00:30:13;;;;;;;132.87;28.97;;;;;;;;;;5013402;28;20038;-65
2023/10/18 00:32:39;;;;;;;141.83;28.73;;;;;;;;;;5014172;28;20472;-65
2023/10/18 00:38:12;;;;;;;126.03;28.30;;;;;;;;;;4990102;28;20133;-64
2023/10/18 00:40:40;;;;;;;126.17;29.27;;;;;;;;;;4989703;28;20192;-65
2023/10/18 00:43:26;;;;;;;130.10;30.97;;;;;;;;;;4990331;28;20457;-64
2023/10/18 00:45:52;;;;;;;128.17;29.13;;;;;;;;;;4993648;28;20035;-65
2023/10/18 00:48:25;;;;;;;126.30;27.43;;;;;;;;;;4992005;28;20042;-64
2023/10/18 00:50:57;;;;;;;138.23;30.57;;;;;;;;;;4989868;28;20037;-65
2023/10/18 00:53:24;;;;;;;122.40;28.80;;;;;;;;;;4989006;28;20027;-65
2023/10/18 00:55:57;;;;;;;120.90;29.10;;;;;;;;;;4992824;28;20496;-65
2023/10/18 00:58:23;;;;;;;129.30;30.73;;;;;;;;;;4989195;28;20058;-69
2023/10/18 01:03:52;;;;;;;135.30;30.10;;;;;;;;;;4988551;28;20513;-69
2023/10/18 01:06:21;;;;;;;120.10;29.77;;;;;;;;;;4988672;28;20113;-69
2023/10/18 01:08:50;;;;;;;132.37;29.47;;;;;;;;;;4985798;28;20096;-69
2023/10/18 01:11:23;;;;;;;123.30;27.00;;;;;;;;;;4985227;28;20110;-68
2023/10/18 01:13:55;;;;;;;135.00;30.13;;;;;;;;;;5001599;28;20037;-68
2023/10/18 01:16:23;;;;;;;129.27;30.97;;;;;;;;;;5010175;28;20017;-69
2023/10/18 01:18:49;;;;;;;133.77;31.83;;;;;;;;;;5008718;28;20053;-69
2023/10/18 01:21:19;;;;;;;127.07;30.07;;;;;;;;;;5011491;28;20476;-69
2023/10/18 01:23:54;;;;;;;131.67;29.73;;;;;;;;;;5010235;28;20034;-69
2023/10/18 01:26:23;;;;;;;139.93;33.00;;;;;;;;;;5011119;28;20041;-69
2023/10/18 01:28:49;;;;;;;143.00;32.27;;;;;;;;;;5006929;28;20033;-70
2023/10/18 01:31:14;;;;;;;132.40;32.47;;;;;;;;;;5009763;28;20034;-70
2023/10/18 01:33:43;;;;;;;130.37;30.80;;;;;;;;;;5015390;28;20082;-69
2023/10/18 01:36:13;;;;;;;145.50;32.13;;;;;;;;;;5009671;28;20641;-68
2023/10/18 01:38:39;;;;;;;133.13;33.20;;;;;;;;;;5011425;28;20030;-69
2023/10/18 01:41:16;;;;;;;134.20;31.53;;;;;;;;;;5010906;28;20049;-69
2023/10/18 01:43:43;;;;;;;132.07;30.97;;;;;;;;;;5009762;28;20030;-68
2023/10/18 01:46:09;;;;;;;123.00;29.23;;;;;;;;;;5010113;28;20478;-69
2023/10/18 01:48:38;;;;;;;128.20;28.53;;;;;;;;;;5010074;28;20112;-69
2023/10/18 01:51:06;;;;;;;136.53;31.73;;;;;;;;;;5006587;28;20399;-68
2023/10/18 01:53:32;;;;;;;129.47;30.17;;;;;;;;;;5009634;28;20026;-69
2023/10/18 01:55:57;;;;;;;118.27;27.50;;;;;;;;;;5009451;28;20117;-68
2023/10/18 01:58:26;;;;;;;148.97;33.53;;;;;;;;;;5010475;28;20049;-69
2023/10/18 02:00:56;;;;;;;130.83;30.20;;;;;;;;;;5011715;28;20022;-69
2023/10/18 02:03:22;;;;;;;135.67;32.90;;;;;;;;;;5011980;28;20045;-69
2023/10/18 02:05:47;;;;;;;127.10;31.17;;;;;;;;;;5009897;28;20491;-69
2023/10/18 02:08:13;;;;;;;134.30;30.40;;;;;;;;;;5009168;28;20030;-66
2023/10/18 02:10:41;;;;;;;130.57;31.57;;;;;;;;;;5009591;28;20030;-65
2023/10/18 02:13:08;;;;;;;116.87;29.83;;;;;;;;;;5010691;28;20072;-64
2023/10/18 02:15:35;;;;;;;131.47;31.23;;;;;;;;;;5012771;28;20029;-63
2023/10/18 02:18:00;;;;;;;125.67;30.83;;;;;;;;;;5012929;28;20041;-64
2023/10/18 02:20:28;;;;;;;127.37;30.87;;;;;;;;;;5016367;28;20052;-64
2023/10/18 02:22:59;;;;;;;130.67;32.63;;;;;;;;;;5012651;28;20175;-64
2023/10/18 02:25:37;;;;;;;128.40;30.55;;;;;;;;;;5010894;28;20030;-65
2023/10/18 02:28:07;;;;;;;131.20;33.07;;;;;;;;;;5016320;28;20036;-65
2023/10/18 02:30:34;;;;;;;123.72;31.55;;;;;;;;;;5013041;28;20079;-64
2023/10/18 02:33:01;;;;;;;132.50;31.83;;;;;;;;;;5012824;28;20021;-64
2023/10/18 02:35:27;;;;;;;131.73;32.43;;;;;;;;;;5012164;28;20032;-65
2023/10/18 02:37:53;;;;;;;142.00;33.13;;;;;;;;;;5012829;28;20010;-64
2023/10/18 02:40:29;;;;;;;136.70;33.00;;;;;;;;;;5012808;28;20485;-64
2023/10/18 02:42:55;;;;;;;147.47;34.40;;;;;;;;;;5012766;28;20480;-64
2023/10/18 02:45:22;;;;;;;142.23;33.93;;;;;;;;;;5014511;28;20018;-64
2023/10/18 02:47:51;;;;;;;144.40;34.43;;;;;;;;;;5010399;28;20396;-67
2023/10/18 02:50:17;;;;;;;148.80;35.80;;;;;;;;;;5014822;28;20487;-66
2023/10/18 02:52:42;;;;;;;142.73;34.40;;;;;;;;;;5012481;28;20041;-66
2023/10/18 02:55:11;;;;;;;165.77;37.00;;;;;;;;;;5019112;28;20431;-66
2023/10/18 02:57:37;;;;;;;169.43;38.20;;;;;;;;;;5014848;28;20472;-66
2023/10/18 03:00:10;;;;;;;150.97;35.30;;;;;;;;;;5013523;28;20460;-66
2023/10/18 03:02:38;;;;;;;161.93;35.47;;;;;;;;;;5014240;28;20376;-66
2023/10/18 03:05:05;;;;;;;163.60;35.57;;;;;;;;;;5009690;28;20021;-65
2023/10/18 03:07:30;;;;;;;164.57;37.63;;;;;;;;;;5013676;28;20090;-66
2023/10/18 03:10:02;;;;;;;170.63;38.97;;;;;;;;;;5013142;28;20034;-66
2023/10/18 03:12:28;;;;;;;160.03;35.70;;;;;;;;;;5012235;28;20025;-66
2023/10/18 03:14:57;;;;;;;175.63;38.90;;;;;;;;;;5011913;28;20026;-66
2023/10/18 03:19:50;;;;;;;177.33;37.80;;;;;;;;;;5011028;28;20025;-70
2023/10/18 03:22:19;;;;;;;159.40;35.10;;;;;;;;;;5011859;28;20018;-70
2023/10/18 03:24:46;;;;;;;138.37;32.57;;;;;;;;;;5014047;28;20037;-69
2023/10/18 03:27:11;;;;;;;171.33;36.57;;;;;;;;;;5015588;28;20053;-70
2023/10/18 03:29:43;;;;;;;171.07;37.40;;;;;;;;;;5011385;28;20387;-70
2023/10/18 03:32:14;;;;;;;153.65;35.85;;;;;;;;;;5014139;28;20379;-70
2023/10/18 03:34:41;;;;;;;177.25;39.70;;;;;;;;;;5013279;28;20476;-70
2023/10/18 03:37:07;;;;;;;156.43;36.17;;;;;;;;;;5011063;28;20018;-69
2023/10/18 03:39:32;;;;;;;148.07;33.77;;;;;;;;;;5012366;28;20078;-70
2023/10/18 03:42:02;;;;;;;164.30;34.30;;;;;;;;;;5013420;28;20479;-70
2023/10/18 03:44:27;;;;;;;148.73;35.00;;;;;;;;;;5010593;28;20022;-70
2023/10/18 03:47:11;;;;;;;159.60;37.50;;;;;;;;;;5014381;28;20034;-71
2023/10/18 03:49:37;;;;;;;164.93;36.23;;;;;;;;;;5013912;28;20074;-70
2023/10/18 03:54:45;;;;;;;150.27;34.20;;;;;;;;;;5010062;28;20021;-69
2023/10/18 03:57:16;;;;;;;151.67;35.87;;;;;;;;;;5013773;28;20025;-70
2023/10/18 03:59:47;;;;;;;153.63;35.17;;;;;;;;;;5010890;28;20024;-70
2023/10/18 04:02:16;;;;;;;145.98;33.08;;;;;;;;;;5013248;28;20315;-70
2023/10/18 04:04:45;;;;;;;161.97;37.33;;;;;;;;;;5008174;28;20025;-70
2023/10/18 04:07:13;;;;;;;149.67;35.03;;;;;;;;;;5010427;28;20059;-70
2023/10/18 04:12:29;;;;;;;155.03;38.27;;;;;;;;;;5011037;28;20025;-70
2023/10/18 04:15:11;;;;;;;154.43;36.80;;;;;;;;;;5011771;28;20528;-71
2023/10/18 04:17:37;;;;;;;137.63;34.80;;;;;;;;;;4961355;28;1424068;-70
2023/10/18 04:20:23;;;;;;;150.20;36.00;;;;;;;;;;5012308;28;20517;-68
2023/10/18 04:22:49;;;;;;;136.03;29.70;;;;;;;;;;5011096;28;20033;-67
2023/10/18 04:25:16;;;;;;;148.63;36.10;;;;;;;;;;5014931;28;20030;-68
2023/10/18 04:27:45;;;;;;;149.37;34.67;;;;;;;;;;5012871;28;20053;-67
2023/10/18 04:30:15;;;;;;;131.90;33.13;;;;;;;;;;5012603;28;20567;-64
2023/10/18 04:32:40;;;;;;;140.57;32.73;;;;;;;;;;5008693;28;20522;-66
2023/10/18 04:35:10;;;;;;;137.13;34.10;;;;;;;;;;5010211;28;20033;-66
2023/10/18 04:37:36;;;;;;;143.23;31.63;;;;;;;;;;5012921;28;20022;-64
2023/10/18 04:40:02;;;;;;;141.70;34.13;;;;;;;;;;5011025;28;20056;-65
2023/10/18 04:42:28;;;;;;;130.47;32.20;;;;;;;;;;5011539;28;20479;-66
2023/10/18 04:44:56;;;;;;;129.70;31.73;;;;;;;;;;5013402;28;20037;-66
2023/10/18 04:47:31;;;;;;;132.37;33.73;;;;;;;;;;5009873;28;20105;-64
2023/10/18 04:50:05;;;;;;;115.70;29.53;;;;;;;;;;5010376;28;20025;-64
2023/10/18 04:52:40;;;;;;;105.37;27.13;;;;;;;;;;5012142;28;20094;-65
2023/10/18 04:55:11;;;;;;;135.73;31.53;;;;;;;;;;5013390;28;20114;-64
2023/10/18 04:57:38;;;;;;;142.48;32.15;;;;;;;;;;5009414;28;20026;-65
2023/10/18 05:00:11;;;;;;;125.20;29.43;;;;;;;;;;5010339;28;20032;-66
2023/10/18 05:02:38;;;;;;;135.93;33.43;;;;;;;;;;5010533;28;20476;-64
2023/10/18 05:05:09;;;;;;;123.87;30.60;;;;;;;;;;5010705;28;20034;-63
2023/10/18 05:07:47;;;;;;;120.90;29.10;;;;;;;;;;5012195;28;20026;-62
2023/10/18 05:10:16;;;;;;;119.80;32.60;;;;;;;;;;5012798;28;20014;-64
2023/10/18 05:12:49;;;;;;;114.53;30.17;;;;;;;;;;5014830;28;20033;-64
2023/10/18 05:15:18;;;;;;;125.03;32.90;;;;;;;;;;5009828;28;20467;-64
2023/10/18 05:17:44;;;;;;;108.67;29.50;;;;;;;;;;5008216;28;20579;-65
2023/10/18 05:22:52;;;;;;;125.40;31.60;;;;;;;;;;5010528;28;20043;-61
2023/10/18 05:27:59;;;;;;;120.90;32.77;;;;;;;;;;5010046;28;20070;-65
2023/10/18 05:31:03;;;;;;;107.07;28.53;;;;;;;;;;5010085;28;20021;-64
2023/10/18 05:33:29;;;;;;;123.17;30.47;;;;;;;;;;5010047;28;20104;-64
2023/10/18 05:36:02;;;;;;;119.47;29.98;;;;;;;;;;5009964;28;20036;-64
2023/10/18 05:41:28;;;;;;;116.83;29.87;;;;;;;;;;5010276;28;20018;-63
2023/10/18 05:43:54;;;;;;;;;;;;;;;;;;5010447;28;20365;-63
2023/10/18 05:46:20;;;;;;;110.80;27.77;;;;;;;;;;5009558;28;19963;-65
2023/10/18 05:48:46;;;;;;;111.27;29.17;;;;;;;;;;5009797;28;20113;-65
2023/10/18 05:51:26;;;;;;;92.30;26.67;;;;;;;;;;5009987;28;20114;-65
2023/10/18 05:54:03;;;;;;;79.43;23.80;;;;;;;;;;5007033;28;20094;-63
2023/10/18 05:56:32;;;;;;;90.60;26.50;;;;;;;;;;5006143;28;20022;-64
2023/10/18 05:59:27;;;;;;;84.83;26.73;;;;;;;;;;5009805;28;20049;-63
2023/10/18 06:01:53;;;;;;;83.60;26.33;;;;;;;;;;5009966;28;20468;-65
2023/10/18 06:04:25;;;;;;;77.50;24.47;;;;;;;;;;5009762;28;20010;-64
2023/10/18 06:06:51;;;;;;;86.32;26.27;;;;;;;;;;5010059;28;20475;-65
2023/10/18 06:09:28;;;;;;;93.17;27.23;;;;;;;;;;5009345;28;20022;-64
2023/10/18 06:11:56;;;;;;;79.93;24.77;;;;;;;;;;5009468;28;20084;-64
2023/10/18 06:14:25;;;;;;;84.83;27.43;;;;;;;;;;5009463;28;20014;-65
2023/10/18 06:17:06;;;;;;;81.83;25.90;;;;;;;;;;5009340;28;20500;-65
2023/10/18 06:19:31;;;;;;;88.30;28.17;;;;;;;;;;5009380;28;20487;-64
2023/10/18 06:21:59;;;;;;;97.10;28.00;;;;;;;;;;5009364;28;20052;-65
2023/10/18 06:24:25;;;;;;;85.03;26.67;;;;;;;;;;5009786;28;20460;-64
2023/10/18 06:26:52;;;;;;;76.70;26.10;;;;;;;;;;5009405;28;20079;-63
2023/10/18 06:29:22;;;;;;;74.90;25.63;;;;;;;;;;5009307;28;20101;-63
2023/10/18 06:31:48;;;;;;;83.80;27.40;;;;;;;;;;5009295;28;20026;-64
2023/10/18 06:34:19;;;;;;;65.70;21.10;;;;;;;;;;5009652;28;20511;-62
2023/10/18 06:36:47;;;;;;;67.10;22.60;;;;;;;;;;5009488;28;20026;-64
2023/10/18 06:39:24;;;;;;;71.37;25.20;;;;;;;;;;5007617;28;20022;-63
2023/10/18 06:41:50;;;;;;;64.07;22.50;;;;;;;;;;5009194;28;20041;-63
2023/10/18 06:44:18;;;;;;;60.30;22.43;;;;;;;;;;5009477;28;20010;-63
2023/10/18 06:46:47;;;;;;;68.47;24.87;;;;;;;;;;5009314;28;20086;-62
2023/10/18 06:49:12;;;;;;;54.13;22.40;;;;;;;;;;5009565;28;20459;-67
2023/10/18 06:51:40;;;;;;;51.40;20.70;;;;;;;;;;5009438;28;20021;-62
2023/10/18 06:54:13;;;;;;;61.73;23.97;;;;;;;;;;5006661;28;20022;-61
2023/10/18 06:56:57;;;;;;;64.43;22.70;;;;;;;;;;5008855;28;20018;-62
2023/10/18 06:59:28;;;;;;;53.30;20.80;;;;;;;;;;5010619;28;20460;-63
2023/10/18 07:01:59;;;;;;;47.20;19.43;;;;;;;;;;5012268;28;20014;-61
2023/10/18 07:04:38;;;;;;;61.03;23.75;;;;;;;;;;5012638;28;20025;-63
2023/10/18 07:07:13;;;;;;;51.67;21.37;;;;;;;;;;5012588;28;20022;-61
2023/10/18 07:09:38;;;;;;;55.37;22.43;;;;;;;;;;5010516;28;20096;-62
2023/10/18 07:12:03;;;;;;;45.27;21.23;;;;;;;;;;5012375;28;20443;-64
2023/10/18 07:14:32;;;;;;;45.57;19.83;;;;;;;;;;5012336;28;20482;-62
2023/10/18 07:17:00;;;;;;;44.93;21.10;;;;;;;;;;5012062;28;20050;-65
2023/10/18 07:19:47;;;;;;;46.00;19.13;;;;;;;;;;5012186;28;20018;-63
2023/10/18 07:22:17;;;;;;;38.53;18.13;;;;;;;;;;5012448;28;20543;-62
2023/10/18 07:24:43;;;;;;;41.83;19.93;;;;;;;;;;5012167;28;20457;-61
2023/10/18 07:27:11;;;;;;;35.33;18.10;;;;;;;;;;5011956;28;20010;-62
2023/10/18 07:29:37;;;;;;;35.47;17.63;;;;;;;;;;5012175;28;20025;-64
2023/10/18 07:32:06;;;;;;;32.20;16.77;;;;;;;;;;5012299;28;20036;-62
2023/10/18 07:34:36;;;;;;;30.03;16.50;;;;;;;;;;5011795;28;20029;-63
2023/10/18 07:37:17;;;;;;;29.50;14.53;;;;;;;;;;5010600;28;20022;-61
2023/10/18 07:39:42;;;;;;;33.67;16.07;;;;;;;;;;5012029;28;20524;-62
2023/10/18 07:42:08;;;;;;;27.87;14.53;;;;;;;;;;5011852;28;20014;-62
2023/10/18 07:44:33;;;;;;;27.03;13.57;;;;;;;;;;5012053;28;20024;-61
2023/10/18 07:46:58;;;;;;;31.07;15.37;;;;;;;;;;5011610;28;20036;-62
2023/10/18 07:49:24;;;;;;;30.47;14.63;;;;;;;;;;5011607;28;20026;-62
2023/10/18 07:51:49;;;;;;;27.27;13.47;;;;;;;;;;5011541;28;20030;-61
2023/10/18 07:54:20;;;;;;;24.57;13.53;;;;;;;;;;5008764;28;20037;-63
2023/10/18 07:56:54;;;;;;;21.27;11.43;;;;;;;;;;5011442;28;20030;-63
2023/10/18 07:59:45;;;;;;;24.00;12.90;;;;;;;;;;5009486;28;20026;-62
2023/10/18 08:02:14;;;;;;;24.00;12.55;;;;;;;;;;5011376;28;20014;-64
2023/10/18 08:04:42;;;;;;;22.37;11.03;;;;;;;;;;5011528;28;20531;-62
2023/10/18 08:07:10;;;;;;;25.13;12.37;;;;;;;;;;5011659;28;20022;-62
2023/10/18 08:09:39;;;;;;;24.40;14.03;;;;;;;;;;5010871;28;20014;-63
2023/10/18 08:12:08;;;;;;;23.97;12.97;;;;;;;;;;5010258;28;20067;-62
2023/10/18 08:14:33;;;;;;;28.30;13.00;;;;;;;;;;5011251;28;20136;-60
2023/10/18 08:17:08;;;;;;;28.93;15.40;;;;;;;;;;5007060;28;20121;-60
2023/10/18 08:19:43;;;;;;;26.53;13.73;;;;;;;;;;5007263;28;20097;-60
2023/10/18 08:24:36;;;;;;;28.43;14.33;;;;;;;;;;5011445;28;20038;-60
2023/10/18 08:27:09;;;;;;;27.80;13.57;;;;;;;;;;5011223;28;20521;-60
2023/10/18 08:29:34;;;;;;;30.57;15.53;;;;;;;;;;5011026;28;20105;-61
2023/10/18 08:32:04;;;;;;;28.10;15.10;;;;;;;;;;5011143;28;20049;-61
2023/10/18 08:34:31;;;;;;;28.47;14.43;;;;;;;;;;5011197;28;20014;-61
2023/10/18 08:37:03;;;;;;;26.67;13.83;;;;;;;;;;5010737;28;20029;-61
2023/10/18 08:39:28;;;;;;;27.63;14.23;;;;;;;;;;5011213;28;20464;-62
2023/10/18 08:41:59;;;;;;;27.90;15.20;;;;;;;;;;5011207;28;20025;-60
2023/10/18 08:44:25;;;;;;;30.37;15.77;;;;;;;;;;5011048;28;20048;-62
2023/10/18 08:49:34;;;;;;;26.80;14.10;;;;;;;;;;5008152;28;20030;-62
2023/10/18 08:52:08;;;;;;;29.57;14.43;;;;;;;;;;5010897;28;20531;-61
2023/10/18 08:54:34;;;;;;;27.67;13.40;;;;;;;;;;5010840;28;20520;-60
2023/10/18 08:57:06;;;;;;;26.90;12.97;;;;;;;;;;5010658;28;20105;-62
2023/10/18 08:59:31;;;;;;;;;;;;;;;;;;5011336;28;20018;-62
2023/10/18 09:02:11;;;;;;;26.67;13.23;;;;;;;;;;5010959;28;19905;-61
2023/10/18 09:04:37;;;;;;;23.43;11.97;;;;;;;;;;5010854;28;20026;-61
2023/10/18 09:07:18;;;;;;;20.37;9.87;;;;;;;;;;5010245;28;20464;-61
2023/10/18 09:09:53;;;;;;;21.27;9.37;;;;;;;;;;5010231;28;20025;-62
2023/10/18 09:12:18;;;;;;;20.60;9.67;;;;;;;;;;5010417;28;20014;-60
2023/10/18 09:14:50;;;;;;;19.00;7.50;;;;;;;;;;5010218;28;20464;-62
2023/10/18 09:17:21;;;;;;;13.50;7.27;;;;;;;;;;5010256;28;20111;-63
2023/10/18 09:19:51;;;;;;;17.15;7.80;;;;;;;;;;5010575;28;20471;-62
2023/10/18 09:22:16;;;;;;;19.87;6.77;;;;;;;;;;5009997;28;20074;-62
2023/10/18 09:24:43;;;;;;;18.17;9.27;;;;;;;;;;5010510;28;20459;-63
2023/10/18 09:27:09;;;;;;;14.97;6.90;;;;;;;;;;5010324;28;20381;-62
2023/10/18 09:29:35;;;;;;;22.40;10.10;;;;;;;;;;5010103;28;20009;-63
2023/10/18 09:32:03;;;;;;;17.90;9.67;;;;;;;;;;5009521;28;20022;-66
2023/10/18 09:34:33;;;;;;;20.53;9.23;;;;;;;;;;5009655;28;20113;-61
2023/10/18 09:36:58;;;;;;;19.63;8.20;;;;;;;;;;5010156;28;20042;-62
2023/10/18 09:39:42;;;;;;;16.70;8.63;;;;;;;;;;5010239;28;20585;-62
2023/10/18 09:42:12;;;;;;;18.40;9.23;;;;;;;;;;5009872;28;20468;-63
2023/10/18 09:44:38;;;;;;;22.30;9.17;;;;;;;;;;5010037;28;20018;-62
2023/10/18 09:47:04;;;;;;;18.93;8.53;;;;;;;;;;5009787;28;20022;-62
2023/10/18 09:49:31;;;;;;;15.17;7.20;;;;;;;;;;5010055;28;20026;-66
2023/10/18 09:52:00;;;;;;;14.67;7.30;;;;;;;;;;5009682;28;20022;-66
2023/10/18 09:54:25;;;;;;;11.90;5.47;;;;;;;;;;5009492;28;20025;-62
2023/10/18 09:56:53;;;;;;;13.97;4.90;;;;;;;;;;5010022;28;20064;-64
2023/10/18 09:59:30;;;;;;;17.90;8.63;;;;;;;;;;5010066;28;20021;-63
2023/10/18 10:02:00;;;;;;;23.43;10.80;;;;;;;;;;5006202;28;20383;-62
2023/10/18 10:04:32;;;;;;;16.83;7.73;;;;;;;;;;5009934;28;20029;-63
2023/10/18 10:07:27;;;;;;;;;;;;;;;;;;5010308;28;20384;-62
2023/10/18 10:09:46;;;;;;;16.90;8.00;;;;;;;;;;5009610;28;19906;-62
2023/10/18 10:12:11;;;;;;;18.37;8.80;;;;;;;;;;5009397;28;20053;-61
2023/10/18 10:14:37;;;;;;;15.50;6.40;;;;;;;;;;5009835;28;20042;-64
2023/10/18 10:17:05;;;;;;;19.30;9.20;;;;;;;;;;5009442;28;20047;-63
2023/10/18 10:20:10;;;;;;;21.33;9.90;;;;;;;;;;5009852;28;20460;-63
2023/10/18 10:22:37;;;;;;;20.33;7.63;;;;;;;;;;5049920;28;20025;-68
2023/10/18 10:25:04;;;;;;;20.57;9.90;;;;;;;;;;5049903;28;20541;-69
2023/10/18 10:30:25;;;;;;;18.60;8.80;;;;;;;;;;5049831;28;20020;-70
2023/10/18 10:32:53;;;;;;;12.57;6.23;;;;;;;;;;5049746;28;20039;-68
2023/10/18 10:35:27;;;;;;;13.57;7.43;;;;;;;;;;5052887;28;20110;-68
2023/10/18 10:38:09;;;;;;;19.43;8.63;;;;;;;;;;5053714;28;20535;-70
2023/10/18 10:40:38;;;;;;;17.77;7.73;;;;;;;;;;5053707;28;20025;-68
2023/10/18 10:43:10;;;;;;;18.30;8.73;;;;;;;;;;5053518;28;20028;-68
2023/10/18 10:46:00;;;;;;;10.60;5.90;;;;;;;;;;5053493;28;20159;-68
2023/10/18 10:51:16;;;;;;;16.77;8.03;;;;;;;;;;5053063;28;20036;-70
2023/10/18 10:53:49;;;;;;;12.10;5.03;;;;;;;;;;5053428;28;20498;-67
2023/10/18 10:56:17;;;;;;;13.03;6.23;;;;;;;;;;5053375;28;20017;-68
2023/10/18 10:58:55;;;;;;;14.87;7.93;;;;;;;;;;5033019;28;20030;-68
2023/10/18 11:01:43;;;;;;;14.23;7.93;;;;;;;;;;5012805;28;20018;-68
2023/10/18 11:04:15;;;;;;;9.13;3.90;;;;;;;;;;4932749;29;20107;-67
2023/10/18 11:06:43;;;;;;;16.88;7.72;;;;;;;;;;4932729;29;20073;-68
2023/10/18 11:09:15;;;;;;;23.63;6.20;;;;;;;;;;4932412;28;20566;-69
2023/10/18 11:11:42;;;;;;;12.80;6.03;;;;;;;;;;4932859;29;20054;-68
2023/10/18 11:14:07;;;;;;;13.10;5.90;;;;;;;;;;4932717;29;20031;-69
2023/10/18 11:16:32;;;;;;;16.77;6.83;;;;;;;;;;4932287;29;20431;-67
2023/10/18 11:19:00;;;;;;;14.47;6.90;;;;;;;;;;4932816;28;20169;-67
2023/10/18 11:21:28;;;;;;;15.50;7.83;;;;;;;;;;4932601;28;20387;-67
2023/10/18 11:24:01;;;;;;;13.40;4.63;;;;;;;;;;4932422;28;20442;-66
2023/10/18 11:26:27;;;;;;;9.07;4.73;;;;;;;;;;4932456;29;20495;-66
2023/10/18 11:28:56;;;;;;;16.97;7.17;;;;;;;;;;4931920;29;20402;-67
2023/10/18 11:31:26;;;;;;;13.10;7.27;;;;;;;;;;4932682;29;20047;-68
2023/10/18 11:33:57;;;;;;;14.50;6.67;;;;;;;;;;4932349;28;20530;-67
2023/10/18 11:36:27;;;;;;;14.57;7.17;;;;;;;;;;4931910;29;20066;-67
2023/10/18 11:39:07;;;;;;;14.10;7.43;;;;;;;;;;4916454;29;20475;-67
2023/10/18 11:41:34;;;;;;;13.60;7.07;;;;;;;;;;4982357;28;20046;-67
2023/10/18 11:44:06;;;;;;;11.47;5.80;;;;;;;;;;5011623;28;20018;-67
2023/10/18 11:46:31;;;;;;;;;;;;;;;;;;5012199;28;20369;-68
2023/10/18 11:48:56;;;;;;;14.68;6.13;;;;;;;;;;5011942;28;20417;-68
2023/10/18 11:51:22;;;;;;;9.93;5.10;;;;;;;;;;5011913;28;20034;-69
2023/10/18 11:53:51;;;;;;;14.67;7.67;;;;;;;;;;5011638;28;20022;-67
2023/10/18 11:56:17;;;;;;;14.30;7.43;;;;;;;;;;5011487;28;20028;-68
2023/10/18 11:58:58;;;;;;;11.97;6.47;;;;;;;;;;5011129;28;20017;-67
2023/10/18 12:01:31;;;;;;;12.30;6.55;;;;;;;;;;5008858;28;20028;-67
2023/10/18 12:03:56;;;;;;;14.57;6.63;;;;;;;;;;5008624;28;20503;-67
2023/10/18 12:06:22;;;;;;;10.53;4.80;;;;;;;;;;5011436;28;20113;-67
2023/10/18 12:09:00;;;;;;;11.07;4.60;;;;;;;;;;5007711;28;20426;-67
2023/10/18 12:11:25;;;;;;;14.77;5.60;;;;;;;;;;5011756;28;20161;-66
2023/10/18 12:13:50;;;;;;;15.03;7.40;;;;;;;;;;5011593;28;20029;-67
2023/10/18 12:16:17;;;;;;;16.70;6.97;;;;;;;;;;5011591;28;20093;-67
2023/10/18 12:18:42;;;;;;;10.50;4.90;;;;;;;;;;5010973;28;20054;-66
2023/10/18 12:21:10;;;;;;;12.90;6.10;;;;;;;;;;5011207;28;20097;-67
2023/10/18 12:23:36;;;;;;;12.00;5.20;;;;;;;;;;5011412;28;20017;-67
2023/10/18 12:26:05;;;;;;;13.40;5.30;;;;;;;;;;5011401;28;20014;-67
2023/10/18 12:28:35;;;;;;;14.77;6.27;;;;;;;;;;5011341;28;20102;-67
2023/10/18 12:31:09;;;;;;;10.77;5.00;;;;;;;;;;5011168;28;20488;-67
2023/10/18 12:33:34;;;;;;;10.87;4.83;;;;;;;;;;5011200;28;20017;-66
2023/10/18 12:36:00;;;;;;;9.20;4.67;;;;;;;;;;5011019;28;20033;-67
2023/10/18 12:38:31;;;;;;;8.03;4.63;;;;;;;;;;5010866;28;20093;-67
2023/10/18 12:41:18;;;;;;;8.85;4.50;;;;;;;;;;5011087;28;20014;-67
2023/10/18 12:43:47;;;;;;;10.80;5.60;;;;;;;;;;5007876;28;20026;-61
2023/10/18 12:46:16;;;;;;;11.67;4.90;;;;;;;;;;5010800;28;20018;-62
2023/10/18 12:48:42;;;;;;;11.17;4.87;;;;;;;;;;5010622;28;20105;-61
2023/10/18 12:51:09;;;;;;;10.57;5.10;;;;;;;;;;5010946;28;20022;-63
2023/10/18 12:53:38;;;;;;;9.90;4.97;;;;;;;;;;5010942;28;20026;-63
2023/10/18 13:04:06;;;;;;;11.85;5.22;;;;;;;;;;5010914;28;20033;-62
2023/10/18 13:06:50;;;;;;;12.03;6.03;;;;;;;;;;5010460;28;20033;-63
2023/10/18 13:09:19;;;;;;;10.50;5.07;;;;;;;;;;5010072;28;20022;-61
2023/10/18 13:14:23;;;;;;;10.13;5.60;;;;;;;;;;5010569;28;20018;-61
2023/10/18 13:16:49;;;;;;;7.40;4.20;;;;;;;;;;5008975;28;20483;-61
2023/10/18 13:19:15;;;;;;;11.90;6.07;;;;;;;;;;5010689;28;20513;-62
2023/10/18 13:21:40;;;;;;;13.30;5.80;;;;;;;;;;5010521;28;20085;-64
2023/10/18 13:26:53;;;;;;;14.90;6.00;;;;;;;;;;5009979;28;20025;-62
2023/10/18 13:31:45;;;;;;;10.20;4.43;;;;;;;;;;5010192;28;20433;-64
2023/10/18 13:34:18;;;;;;;8.83;4.30;;;;;;;;;;5010366;28;20513;-62
2023/10/18 13:36:47;;;;;;;10.47;5.20;;;;;;;;;;5010191;28;20021;-64
2023/10/18 13:39:13;;;;;;;8.67;3.53;;;;;;;;;;5010323;28;20452;-61
2023/10/18 13:41:39;;;;;;;10.50;5.17;;;;;;;;;;5010200;28;20071;-62
2023/10/18 13:44:04;;;;;;;10.63;6.03;;;;;;;;;;5009640;28;20022;-61
2023/10/18 13:46:30;;;;;;;11.67;5.50;;;;;;;;;;5009887;28;20022;-63
2023/10/18 13:48:55;;;;;;;12.13;5.97;;;;;;;;;;5009776;28;20372;-62
2023/10/18 13:51:21;;;;;;;10.67;6.10;;;;;;;;;;5010111;28;20029;-62
2023/10/18 13:53:46;;;;;;;12.77;4.87;;;;;;;;;;5007215;28;20053;-67
2023/10/18 13:56:12;;;;;;;13.27;6.13;;;;;;;;;;5009652;28;20022;-65
2023/10/18 13:58:39;;;;;;;11.33;5.60;;;;;;;;;;5009841;28;20010;-67
2023/10/18 14:01:05;;;;;;;14.33;5.93;;;;;;;;;;5009849;28;20468;-66
2023/10/18 14:03:31;;;;;;;13.23;7.20;;;;;;;;;;5009962;28;20505;-68
2023/10/18 14:05:57;;;;;;;12.10;6.53;;;;;;;;;;5009656;28;20512;-67
2023/10/18 14:08:22;;;;;;;6.90;3.47;;;;;;;;;;5008330;28;20018;-68
2023/10/18 14:10:49;;;;;;;8.87;4.00;;;;;;;;;;5013555;28;20026;-65
2023/10/18 14:13:16;;;;;;;10.20;4.20;;;;;;;;;;5013535;28;20520;-63
2023/10/18 14:15:43;;;;;;;10.87;5.40;;;;;;;;;;5013006;28;20018;-69
2023/10/18 14:18:08;;;;;;;12.17;4.53;;;;;;;;;;5012926;28;20438;-69
2023/10/18 14:20:37;;;;;;;9.87;5.00;;;;;;;;;;5013250;28;20024;-69
2023/10/18 14:23:07;;;;;;;6.77;3.30;;;;;;;;;;5013007;28;20066;-68
2023/10/18 14:25:32;;;;;;;7.00;3.00;;;;;;;;;;5011448;28;20384;-69
2023/10/18 14:27:57;;;;;;;9.43;4.73;;;;;;;;;;5012945;28;20033;-69
2023/10/18 14:30:22;;;;;;;10.80;5.07;;;;;;;;;;5012913;28;20035;-70
2023/10/18 14:32:48;;;;;;;11.77;5.57;;;;;;;;;;5012977;28;20022;-70
2023/10/18 14:35:16;;;;;;;12.77;5.87;;;;;;;;;;5012956;28;20026;-65
2023/10/18 14:37:43;;;;;;;14.63;6.60;;;;;;;;;;5012988;28;20416;-70
2023/10/18 14:40:09;;;;;;;9.33;4.50;;;;;;;;;;5012687;28;20380;-67
2023/10/18 14:42:34;;;;;;;12.17;5.90;;;;;;;;;;5013018;28;20028;-71
2023/10/18 14:45:00;;;;;;;16.53;10.47;;;;;;;;;;5012710;28;20109;-65
2023/10/18 14:47:25;;;;;;;9.77;5.20;;;;;;;;;;5012619;28;20384;-69
2023/10/18 14:49:50;;;;;;;9.07;4.63;;;;;;;;;;5012557;28;20109;-71
2023/10/18 14:52:19;;;;;;;11.07;5.77;;;;;;;;;;5008822;28;20485;-68
2023/10/18 14:54:45;;;;;;;11.83;5.20;;;;;;;;;;5012365;28;20472;-69
2023/10/18 14:57:10;;;;;;;8.93;4.30;;;;;;;;;;5012236;28;20024;-69
2023/10/18 14:59:37;;;;;;;9.97;4.87;;;;;;;;;;5012845;28;20388;-68
2023/10/18 15:02:03;;;;;;;10.27;6.17;;;;;;;;;;5012655;28;20053;-68
2023/10/18 15:04:28;;;;;;;9.43;4.63;;;;;;;;;;5012314;28;20472;-70
2023/10/18 15:06:54;;;;;;;12.33;6.70;;;;;;;;;;5012206;28;20026;-69
2023/10/18 15:09:20;;;;;;;10.17;5.50;;;;;;;;;;5012049;28;20022;-70
2023/10/18 15:11:48;;;;;;;13.40;5.97;;;;;;;;;;5013827;28;20037;-69
2023/10/18 15:14:14;;;;;;;7.97;3.50;;;;;;;;;;5012527;28;20516;-64
2023/10/18 15:16:39;;;;;;;12.50;5.73;;;;;;;;;;5014733;28;21566;-69
2023/10/18 15:19:05;;;;;;;9.87;4.77;;;;;;;;;;5013429;28;20048;-68